Time;durP1;ratioP1;P1;durP2;ratioP2;P2;SDS_P1;SDS_P2;PMS_P1;PMS_P2;Temp;Humidity;BMP_temperature;BMP_pressure;BME280_temperature;BME280_humidity;BME280_pressure;Samples;Min_cycle;Max_cycle;Signal;HPM_P1;HPM_P2
2022/04/24 00:00:27;;;;;;;;;19.25;18.00;;;;;;;;5035056;28;45411;-71
2022/04/24 00:02:52;;;;;;;;;16.75;15.00;;;;;;;;5051949;28;45277;-71
2022/04/24 00:05:17;;;;;;;;;19.75;18.75;;;;;;;;5053272;28;45447;-71
2022/04/24 00:07:43;;;;;;;;;19.50;18.00;;;;;;;;5051436;28;45268;-71
2022/04/24 00:10:10;;;;;;;;;18.50;18.50;;;;;;;;5051635;28;45436;-71
2022/04/24 00:12:35;;;;;;;;;18.50;18.50;;;;;;;;5050856;28;47654;-71
2022/04/24 00:15:01;;;;;;;;;23.25;19.50;;;;;;;;5051378;28;46892;-71
2022/04/24 00:17:26;;;;;;;;;13.50;13.50;;;;;;;;5052082;28;45427;-72
2022/04/24 00:19:51;;;;;;;;;18.75;18.25;;;;;;;;5052299;28;45583;-71
2022/04/24 00:22:16;;;;;;;;;18.75;17.75;;;;;;;;5051883;28;45402;-73
2022/04/24 00:24:41;;;;;;;;;19.50;19.00;;;;;;;;5043967;28;46605;-70
2022/04/24 00:27:08;;;;;;;;;21.00;20.25;;;;;;;;5038281;28;45558;-69
2022/04/24 00:29:33;;;;;;;;;14.25;14.25;;;;;;;;5049608;28;45390;-69
2022/04/24 00:31:58;;;;;;;;;22.00;19.00;;;;;;;;5041044;28;45528;-69
2022/04/24 00:34:23;;;;;;;;;19.00;18.00;;;;;;;;5045338;28;46186;-69
2022/04/24 00:36:48;;;;;;;;;17.25;14.50;;;;;;;;5048986;28;45568;-70
2022/04/24 00:39:14;;;;;;;;;17.25;16.00;;;;;;;;5038808;28;45500;-70
2022/04/24 00:41:45;;;;;;;;;22.00;20.00;;;;;;;;5051442;28;45456;-69
2022/04/24 00:44:10;;;;;;;;;22.25;19.75;;;;;;;;5051611;28;46412;-68
2022/04/24 00:46:41;;;;;;;;;21.75;18.50;;;;;;;;5049999;28;45383;-69
2022/04/24 00:49:10;;;;;;;;;18.00;18.00;;;;;;;;5046832;28;45502;-70
2022/04/24 00:51:37;;;;;;;;;20.50;18.50;;;;;;;;5040473;28;45495;-69
2022/04/24 00:54:04;;;;;;;;;19.50;18.50;;;;;;;;5052626;28;46176;-69
2022/04/24 00:56:31;;;;;;;;;22.00;19.50;;;;;;;;5038636;28;45447;-69
2022/04/24 00:58:58;;;;;;;;;23.75;20.50;;;;;;;;5051001;28;45261;-69
2022/04/24 01:01:23;;;;;;;;;19.25;17.00;;;;;;;;5053091;28;45566;-69
2022/04/24 01:03:48;;;;;;;;;18.50;17.00;;;;;;;;5049730;28;45403;-69
2022/04/24 01:06:14;;;;;;;;;22.25;18.50;;;;;;;;5052863;28;48495;-69
2022/04/24 01:08:39;;;;;;;;;18.75;17.50;;;;;;;;5038257;28;45561;-70
2022/04/24 01:11:04;;;;;;;;;17.75;17.25;;;;;;;;5040347;28;45394;-70
2022/04/24 01:13:29;;;;;;;;;17.50;16.25;;;;;;;;5046846;28;46367;-70
2022/04/24 01:15:58;;;;;;;;;20.50;18.75;;;;;;;;5051835;28;45581;-70
2022/04/24 01:18:24;;;;;;;;;17.00;17.00;;;;;;;;5049956;28;45384;-70
2022/04/24 01:20:50;;;;;;;;;19.00;16.00;;;;;;;;5036498;28;45397;-70
2022/04/24 01:23:15;;;;;;;;;19.25;16.75;;;;;;;;5043693;28;46978;-70
2022/04/24 01:25:40;;;;;;;;;14.75;14.75;;;;;;;;5041082;28;45458;-70
2022/04/24 01:28:07;;;;;;;;;19.50;18.00;;;;;;;;5043662;28;45541;-69
2022/04/24 01:30:32;;;;;;;;;16.50;16.50;;;;;;;;5032825;28;45577;-70
2022/04/24 01:32:57;;;;;;;;;20.25;18.00;;;;;;;;5038771;28;45598;-70
2022/04/24 01:35:23;;;;;;;;;18.25;18.25;;;;;;;;5054094;28;45347;-71
2022/04/24 01:37:48;;;;;;;;;16.25;15.00;;;;;;;;5049781;28;45285;-70
2022/04/24 01:40:13;;;;;;;;;15.50;14.50;;;;;;;;5031560;28;45337;-71
2022/04/24 01:42:38;;;;;;;;;22.25;20.25;;;;;;;;5053803;28;45340;-71
2022/04/24 01:45:04;;;;;;;;;21.00;17.00;;;;;;;;5053213;28;45298;-71
2022/04/24 01:47:30;;;;;;;;;16.00;14.75;;;;;;;;5054429;28;45407;-71
2022/04/24 01:49:55;;;;;;;;;18.75;15.75;;;;;;;;5054836;28;45401;-71
2022/04/24 01:52:20;;;;;;;;;16.75;16.75;;;;;;;;5054084;28;46117;-71
2022/04/24 01:54:45;;;;;;;;;21.00;17.75;;;;;;;;5053485;28;45579;-71
2022/04/24 01:57:11;;;;;;;;;19.25;16.25;;;;;;;;5053633;28;45473;-71
2022/04/24 01:59:36;;;;;;;;;17.75;15.00;;;;;;;;5053788;28;45324;-70
2022/04/24 02:02:02;;;;;;;;;13.25;12.25;;;;;;;;5055260;28;46247;-70
2022/04/24 02:04:27;;;;;;;;;23.00;20.50;;;;;;;;5053633;28;45322;-70
2022/04/24 02:06:52;;;;;;;;;16.50;12.25;;;;;;;;5053519;28;45605;-71
2022/04/24 02:09:18;;;;;;;;;19.00;16.00;;;;;;;;5053160;28;45439;-71
2022/04/24 02:11:43;;;;;;;;;19.50;17.25;;;;;;;;5053912;28;46165;-70
2022/04/24 02:14:08;;;;;;;;;14.50;13.50;;;;;;;;5042228;28;45397;-71
2022/04/24 02:16:34;;;;;;;;;18.50;15.00;;;;;;;;5054330;28;45434;-70
2022/04/24 02:18:59;;;;;;;;;14.50;13.50;;;;;;;;5054115;28;45493;-72
2022/04/24 02:21:25;;;;;;;;;13.75;13.75;;;;;;;;5054203;28;45418;-71
2022/04/24 02:23:51;;;;;;;;;24.25;17.25;;;;;;;;5054145;28;45524;-71
2022/04/24 02:26:16;;;;;;;;;28.75;24.00;;;;;;;;5056295;28;45289;-71
2022/04/24 02:28:41;;;;;;;;;18.50;17.50;;;;;;;;5053380;28;45740;-71
2022/04/24 02:31:10;;;;;;;;;15.25;13.75;;;;;;;;5053342;28;47299;-71
2022/04/24 02:33:35;;;;;;;;;18.50;16.25;;;;;;;;5053705;28;45729;-71
2022/04/24 02:36:00;;;;;;;;;19.00;16.50;;;;;;;;5053523;28;45593;-71
2022/04/24 02:38:25;;;;;;;;;19.00;18.25;;;;;;;;5054899;28;45469;-71
2022/04/24 02:40:51;;;;;;;;;14.75;14.75;;;;;;;;5040570;28;47123;-71
2022/04/24 02:43:16;;;;;;;;;17.50;14.50;;;;;;;;5053317;28;45461;-71
2022/04/24 02:45:41;;;;;;;;;18.25;16.50;;;;;;;;5053892;28;45438;-71
2022/04/24 02:48:06;;;;;;;;;16.25;16.25;;;;;;;;5052194;28;45336;-71
2022/04/24 02:50:32;;;;;;;;;22.25;16.00;;;;;;;;5055808;28;45431;-72
2022/04/24 02:52:57;;;;;;;;;20.25;18.25;;;;;;;;5054479;28;45438;-71
2022/04/24 02:55:23;;;;;;;;;19.50;17.50;;;;;;;;5053491;28;45561;-71
2022/04/24 02:57:48;;;;;;;;;19.00;17.50;;;;;;;;5052452;28;45423;-71
2022/04/24 03:00:21;;;;;;;;;12.25;7.25;;;;;;;;5053072;28;47187;-71
2022/04/24 03:02:46;;;;;;;;;20.00;18.00;;;;;;;;5035425;28;45431;-71
2022/04/24 03:05:13;;;;;;;;;19.25;15.25;;;;;;;;5055361;28;45517;-71
2022/04/24 03:07:38;;;;;;;;;18.25;17.00;;;;;;;;5052760;28;45437;-71
2022/04/24 03:10:03;;;;;;;;;21.50;19.75;;;;;;;;5053081;28;45438;-71
2022/04/24 03:12:29;;;;;;;;;14.75;13.25;;;;;;;;5053644;28;45466;-71
2022/04/24 03:14:54;;;;;;;;;18.00;16.00;;;;;;;;5051556;28;45466;-71
2022/04/24 03:17:20;;;;;;;;;21.75;19.00;;;;;;;;5054592;28;45470;-71
2022/04/24 03:19:45;;;;;;;;;18.50;17.50;;;;;;;;5052880;28;45853;-71
2022/04/24 03:22:10;;;;;;;;;18.00;16.75;;;;;;;;5052426;28;45486;-71
2022/04/24 03:24:35;;;;;;;;;18.25;18.25;;;;;;;;5052992;28;45461;-70
2022/04/24 03:27:01;;;;;;;;;19.25;18.00;;;;;;;;5053083;28;45277;-70
2022/04/24 03:29:26;;;;;;;;;18.25;16.50;;;;;;;;5053776;28;46956;-71
2022/04/24 03:31:51;;;;;;;;;19.25;16.50;;;;;;;;5053240;28;45473;-71
2022/04/24 03:34:17;;;;;;;;;21.25;20.25;;;;;;;;5053094;28;45363;-71
2022/04/24 03:36:42;;;;;;;;;18.50;17.50;;;;;;;;5052777;28;45387;-71
2022/04/24 03:39:08;;;;;;;;;24.25;20.50;;;;;;;;5053051;28;45460;-71
2022/04/24 03:41:33;;;;;;;;;21.75;21.25;;;;;;;;5054435;28;45417;-70
2022/04/24 03:43:58;;;;;;;;;28.75;25.00;;;;;;;;5052653;28;45188;-70
2022/04/24 03:46:23;;;;;;;;;21.00;21.00;;;;;;;;5052740;28;45303;-69
2022/04/24 03:48:48;;;;;;;;;29.25;24.00;;;;;;;;5053376;28;45381;-70
2022/04/24 03:51:14;;;;;;;;;20.25;16.75;;;;;;;;5052574;28;45479;-70
2022/04/24 03:53:39;;;;;;;;;25.25;20.00;;;;;;;;5052860;28;45381;-70
2022/04/24 03:56:04;;;;;;;;;22.00;20.00;;;;;;;;5054632;28;45283;-70
2022/04/24 03:58:29;;;;;;;;;20.50;19.00;;;;;;;;5052376;28;46084;-70
2022/04/24 04:00:55;;;;;;;;;23.25;21.00;;;;;;;;5052409;28;47419;-70
2022/04/24 04:03:20;;;;;;;;;27.25;23.50;;;;;;;;5052164;28;45570;-70
2022/04/24 04:05:46;;;;;;;;;26.00;21.50;;;;;;;;5052394;28;45579;-70
2022/04/24 04:08:11;;;;;;;;;17.50;14.50;;;;;;;;5054294;28;46088;-70
2022/04/24 04:10:36;;;;;;;;;23.00;21.00;;;;;;;;5055918;28;45428;-70
2022/04/24 04:13:04;;;;;;;;;22.00;20.25;;;;;;;;5056118;28;45333;-70
2022/04/24 04:15:30;;;;;;;;;18.50;17.50;;;;;;;;5054886;28;45526;-70
2022/04/24 04:17:55;;;;;;;;;19.00;19.00;;;;;;;;5056226;28;47060;-69
2022/04/24 04:20:20;;;;;;;;;16.25;14.75;;;;;;;;5057967;28;45287;-70
2022/04/24 04:22:52;;;;;;;;;18.00;16.00;;;;;;;;5056200;28;45525;-70
2022/04/24 04:25:18;;;;;;;;;19.25;16.75;;;;;;;;5055771;28;45466;-70
2022/04/24 04:27:43;;;;;;;;;16.00;16.00;;;;;;;;5055972;28;46111;-70
2022/04/24 04:30:09;;;;;;;;;21.75;16.50;;;;;;;;5055370;28;45396;-71
2022/04/24 04:32:35;;;;;;;;;21.25;18.50;;;;;;;;5056149;28;45424;-70
2022/04/24 04:35:01;;;;;;;;;20.25;15.50;;;;;;;;5056940;28;45316;-70
2022/04/24 04:37:26;;;;;;;;;23.00;21.00;;;;;;;;5055031;28;46148;-71
2022/04/24 04:39:51;;;;;;;;;20.50;17.25;;;;;;;;5055654;28;45426;-71
2022/04/24 04:42:16;;;;;;;;;18.50;17.25;;;;;;;;5055777;28;45336;-70
2022/04/24 04:44:43;;;;;;;;;22.50;20.50;;;;;;;;5055809;28;45473;-71
2022/04/24 04:47:08;;;;;;;;;19.25;17.50;;;;;;;;5057529;28;46648;-70
2022/04/24 04:49:33;;;;;;;;;19.00;17.50;;;;;;;;5054252;28;45482;-70
2022/04/24 04:51:58;;;;;;;;;20.25;20.25;;;;;;;;5055870;28;45446;-70
2022/04/24 04:54:24;;;;;;;;;18.50;16.50;;;;;;;;5055594;28;45219;-70
2022/04/24 04:56:49;;;;;;;;;17.25;16.75;;;;;;;;5055599;28;46169;-70
2022/04/24 04:59:14;;;;;;;;;20.25;17.50;;;;;;;;5057115;28;45438;-70
2022/04/24 05:01:39;;;;;;;;;21.50;19.00;;;;;;;;5055076;28;45533;-70
2022/04/24 05:04:04;;;;;;;;;23.25;21.75;;;;;;;;5054570;28;45336;-70
2022/04/24 05:06:29;;;;;;;;;20.50;20.50;;;;;;;;5055274;28;45644;-70
2022/04/24 05:08:55;;;;;;;;;23.25;20.75;;;;;;;;5035966;28;45977;-70
2022/04/24 05:11:20;;;;;;;;;22.00;20.25;;;;;;;;5057147;28;46006;-70
2022/04/24 05:13:45;;;;;;;;;23.75;21.50;;;;;;;;5055089;28;45581;-69
2022/04/24 05:16:11;;;;;;;;;18.00;18.00;;;;;;;;5054871;28;45396;-70
2022/04/24 05:18:36;;;;;;;;;23.00;19.00;;;;;;;;5054607;28;45640;-70
2022/04/24 05:21:02;;;;;;;;;25.50;21.75;;;;;;;;5053482;28;45364;-70
2022/04/24 05:23:27;;;;;;;;;24.75;20.00;;;;;;;;5056413;28;45286;-70
2022/04/24 05:25:52;;;;;;;;;22.00;19.00;;;;;;;;5055752;28;45955;-70
2022/04/24 05:28:18;;;;;;;;;24.00;18.00;;;;;;;;5054813;28;45351;-70
2022/04/24 05:30:43;;;;;;;;;25.75;23.00;;;;;;;;5054727;28;45348;-70
2022/04/24 05:33:08;;;;;;;;;18.25;16.25;;;;;;;;5054263;28;45482;-70
2022/04/24 05:35:33;;;;;;;;;24.25;22.50;;;;;;;;5054981;28;47133;-70
2022/04/24 05:37:59;;;;;;;;;24.00;22.75;;;;;;;;5056188;28;45375;-70
2022/04/24 05:40:24;;;;;;;;;23.25;20.25;;;;;;;;5054464;28;45400;-70
2022/04/24 05:42:52;;;;;;;;;26.00;21.75;;;;;;;;5054701;28;45494;-69
2022/04/24 05:45:18;;;;;;;;;23.50;21.75;;;;;;;;5053708;28;46490;-70
2022/04/24 05:47:46;;;;;;;;;20.50;17.00;;;;;;;;5054660;28;45310;-70
2022/04/24 05:50:12;;;;;;;;;25.00;23.25;;;;;;;;5056707;28;45449;-70
2022/04/24 05:52:40;;;;;;;;;21.75;20.75;;;;;;;;5054202;28;45349;-70
2022/04/24 05:55:06;;;;;;;;;23.00;21.50;;;;;;;;5053663;28;46465;-70
2022/04/24 05:57:31;;;;;;;;;29.25;25.25;;;;;;;;5054190;28;45339;-70
2022/04/24 05:59:58;;;;;;;;;25.75;24.25;;;;;;;;5053373;28;47448;-70
2022/04/24 06:02:23;;;;;;;;;22.50;20.50;;;;;;;;5055648;28;45300;-70
2022/04/24 06:04:48;;;;;;;;;28.25;27.00;;;;;;;;5054160;28;45319;-70
2022/04/24 06:07:13;;;;;;;;;24.25;24.25;;;;;;;;5053704;28;45667;-69
2022/04/24 06:09:38;;;;;;;;;26.25;25.75;;;;;;;;5053753;28;45851;-71
2022/04/24 06:12:04;;;;;;;;;24.25;22.25;;;;;;;;5054049;28;45450;-70
2022/04/24 06:14:29;;;;;;;;;25.25;21.75;;;;;;;;5053618;28;46354;-71
2022/04/24 06:16:54;;;;;;;;;20.75;19.25;;;;;;;;5054131;28;45580;-70
2022/04/24 06:19:20;;;;;;;;;21.50;20.75;;;;;;;;5052959;28;45559;-70
2022/04/24 06:21:45;;;;;;;;;25.50;25.00;;;;;;;;5053266;28;45503;-70
2022/04/24 06:24:10;;;;;;;;;25.50;22.75;;;;;;;;5053074;28;47285;-70
2022/04/24 06:26:35;;;;;;;;;25.75;23.75;;;;;;;;5052866;28;45573;-70
2022/04/24 06:29:02;;;;;;;;;31.00;27.00;;;;;;;;5054641;28;45395;-70
2022/04/24 06:31:27;;;;;;;;;21.25;20.25;;;;;;;;5052513;28;45708;-71
2022/04/24 06:33:53;;;;;;;;;24.50;22.00;;;;;;;;5039246;28;46768;-70
2022/04/24 06:36:18;;;;;;;;;26.50;26.50;;;;;;;;5053220;28;45494;-71
2022/04/24 06:38:44;;;;;;;;;26.50;22.50;;;;;;;;5053095;28;45285;-71
2022/04/24 06:41:09;;;;;;;;;19.00;17.50;;;;;;;;5040931;28;45582;-71
2022/04/24 06:43:34;;;;;;;;;27.00;22.75;;;;;;;;5052414;28;45552;-70
2022/04/24 06:45:59;;;;;;;;;28.00;26.50;;;;;;;;5052621;28;45576;-71
2022/04/24 06:48:24;;;;;;;;;31.50;26.50;;;;;;;;5053395;28;45368;-72
2022/04/24 06:50:50;;;;;;;;;34.75;31.25;;;;;;;;5053360;28;45475;-72
2022/04/24 06:53:20;;;;;;;;;32.50;27.50;;;;;;;;5055220;28;46215;-71
2022/04/24 06:55:45;;;;;;;;;23.50;23.50;;;;;;;;5052896;28;45507;-71
2022/04/24 06:58:12;;;;;;;;;33.75;30.50;;;;;;;;5051739;28;45726;-70
2022/04/24 07:00:42;;;;;;;;;41.25;35.00;;;;;;;;5052548;28;45341;-72
2022/04/24 07:03:11;;;;;;;;;37.25;31.75;;;;;;;;5052550;28;46116;-71
2022/04/24 07:05:39;;;;;;;;;37.50;31.75;;;;;;;;5052330;28;45467;-72
2022/04/24 07:08:05;;;;;;;;;38.25;32.75;;;;;;;;5054660;28;45266;-72
2022/04/24 07:10:30;;;;;;;;;37.50;32.50;;;;;;;;5052461;28;45447;-70
2022/04/24 07:12:55;;;;;;;;;22.75;21.25;;;;;;;;5052227;28;46276;-71
2022/04/24 07:15:21;;;;;;;;;26.50;25.00;;;;;;;;5053115;28;45412;-72
2022/04/24 07:17:47;;;;;;;;;36.25;32.00;;;;;;;;5052205;28;45503;-70
2022/04/24 07:20:14;;;;;;;;;29.75;28.75;;;;;;;;5053197;28;45475;-70
2022/04/24 07:22:42;;;;;;;;;38.00;34.50;;;;;;;;5052106;28;46364;-71
2022/04/24 07:25:07;;;;;;;;;40.75;33.50;;;;;;;;5051912;28;45493;-71
2022/04/24 07:27:32;;;;;;;;;34.75;28.00;;;;;;;;5052237;28;45388;-72
2022/04/24 07:29:57;;;;;;;;;36.00;33.75;;;;;;;;5052833;28;46867;-72
2022/04/24 07:32:23;;;;;;;;;31.00;25.00;;;;;;;;5054292;28;45356;-70
2022/04/24 07:34:48;;;;;;;;;39.00;36.00;;;;;;;;5053121;28;45364;-71
2022/04/24 07:37:14;;;;;;;;;31.25;29.25;;;;;;;;5054795;28;45523;-72
2022/04/24 07:39:39;;;;;;;;;33.00;33.00;;;;;;;;5053125;28;45453;-72
2022/04/24 07:42:04;;;;;;;;;38.25;33.00;;;;;;;;5051780;28;45428;-72
2022/04/24 07:44:29;;;;;;;;;45.25;38.50;;;;;;;;5055641;28;45425;-71
2022/04/24 07:46:54;;;;;;;;;42.25;37.00;;;;;;;;5056813;28;45446;-72
2022/04/24 07:49:19;;;;;;;;;44.25;37.50;;;;;;;;5055802;28;45402;-72
2022/04/24 07:51:46;;;;;;;;;39.25;37.00;;;;;;;;5055837;28;47322;-72
2022/04/24 07:54:11;;;;;;;;;39.00;33.75;;;;;;;;5056077;28;45399;-72
2022/04/24 07:56:36;;;;;;;;;41.50;33.75;;;;;;;;5055408;28;45522;-72
2022/04/24 07:59:01;;;;;;;;;40.50;33.25;;;;;;;;5056922;28;45352;-72
2022/04/24 08:01:27;;;;;;;;;44.75;33.75;;;;;;;;5055005;28;46043;-72
2022/04/24 08:03:52;;;;;;;;;44.00;35.25;;;;;;;;5055265;28;45411;-72
2022/04/24 08:06:17;;;;;;;;;31.50;30.25;;;;;;;;5055660;28;47868;-72
2022/04/24 08:08:42;;;;;;;;;36.50;32.25;;;;;;;;5054976;28;45574;-70
2022/04/24 08:11:08;;;;;;;;;44.75;39.00;;;;;;;;5056615;28;46353;-70
2022/04/24 08:13:33;;;;;;;;;36.50;30.00;;;;;;;;5054958;28;45328;-71
2022/04/24 08:15:59;;;;;;;;;31.25;27.00;;;;;;;;5055199;28;45466;-70
2022/04/24 08:18:25;;;;;;;;;43.75;37.25;;;;;;;;5055353;28;45491;-70
2022/04/24 08:20:51;;;;;;;;;32.00;29.75;;;;;;;;5055447;28;45589;-70
2022/04/24 08:23:16;;;;;;;;;35.50;33.00;;;;;;;;5057296;28;45344;-70
2022/04/24 08:25:41;;;;;;;;;35.50;32.00;;;;;;;;5054970;28;45540;-70
2022/04/24 08:28:08;;;;;;;;;36.50;34.00;;;;;;;;5054811;28;45467;-69
2022/04/24 08:30:34;;;;;;;;;34.75;29.75;;;;;;;;5054690;28;46078;-69
2022/04/24 08:32:59;;;;;;;;;35.50;33.75;;;;;;;;5055193;28;45443;-69
2022/04/24 08:35:24;;;;;;;;;37.25;31.25;;;;;;;;5056393;28;45336;-70
2022/04/24 08:37:50;;;;;;;;;51.00;41.50;;;;;;;;5055717;28;45353;-69
2022/04/24 08:40:16;;;;;;;;;49.25;41.50;;;;;;;;5054603;28;45948;-70
2022/04/24 08:42:41;;;;;;;;;54.25;40.25;;;;;;;;5055237;28;45412;-70
2022/04/24 08:45:09;;;;;;;;;36.50;33.00;;;;;;;;5054581;28;45404;-70
2022/04/24 08:47:35;;;;;;;;;38.50;33.50;;;;;;;;5067630;28;45466;-69
2022/04/24 08:50:00;;;;;;;;;42.25;38.00;;;;;;;;5042609;28;46980;-68
2022/04/24 08:52:27;;;;;;;;;39.00;35.75;;;;;;;;5055929;28;45378;-70
2022/04/24 08:54:53;;;;;;;;;44.00;39.00;;;;;;;;5054475;28;45366;-69
2022/04/24 08:57:19;;;;;;;;;35.75;33.75;;;;;;;;5037036;28;45478;-71
2022/04/24 08:59:44;;;;;;;;;40.50;36.25;;;;;;;;5054221;28;46144;-70
2022/04/24 09:02:09;;;;;;;;;44.75;36.50;;;;;;;;5056426;28;45360;-70
2022/04/24 09:04:36;;;;;;;;;36.75;33.75;;;;;;;;5050595;28;45332;-68
2022/04/24 09:07:02;;;;;;;;;36.25;32.75;;;;;;;;5060701;28;45475;-68
2022/04/24 09:09:29;;;;;;;;;34.25;31.75;;;;;;;;5036844;28;47185;-71
2022/04/24 09:12:08;;;;;;;;;39.50;34.00;;;;;;;;5035965;28;47270;-69
2022/04/24 09:14:34;;;;;;;;;33.25;32.00;;;;;;;;5054120;28;45479;-69
2022/04/24 09:17:04;;;;;;;;;44.00;36.00;;;;;;;;5054185;28;45551;-70
2022/04/24 09:19:29;;;;;;;;;35.25;31.00;;;;;;;;5054169;28;46043;-71
2022/04/24 09:22:01;;;;;;;;;37.25;33.00;;;;;;;;5035713;28;47218;-70
2022/04/24 09:24:45;;;;;;;;;38.25;33.00;;;;;;;;5049747;28;45351;-71
2022/04/24 09:27:11;;;;;;;;;38.75;33.75;;;;;;;;5055107;28;45470;-70
2022/04/24 09:29:40;;;;;;;;;32.25;30.75;;;;;;;;5053741;28;47131;-70
2022/04/24 09:32:09;;;;;;;;;39.00;32.75;;;;;;;;5053960;28;45527;-71
2022/04/24 09:34:35;;;;;;;;;40.50;30.25;;;;;;;;5053375;28;45570;-70
2022/04/24 09:37:02;;;;;;;;;40.00;32.75;;;;;;;;5052399;28;45526;-70
2022/04/24 09:39:28;;;;;;;;;34.25;28.00;;;;;;;;5052632;28;46220;-70
2022/04/24 09:42:12;;;;;;;;;40.50;32.75;;;;;;;;5054164;28;45388;-70
2022/04/24 09:44:42;;;;;;;;;28.50;28.50;;;;;;;;5053330;28;45420;-70
2022/04/24 09:47:08;;;;;;;;;32.75;28.75;;;;;;;;5054832;28;45508;-70
2022/04/24 09:49:45;;;;;;;;;32.75;28.50;;;;;;;;5052884;28;46272;-70
2022/04/24 09:52:14;;;;;;;;;32.25;31.25;;;;;;;;5053012;28;45261;-70
2022/04/24 09:54:41;;;;;;;;;34.25;30.25;;;;;;;;5052460;28;45530;-70
2022/04/24 09:57:06;;;;;;;;;32.00;29.00;;;;;;;;5050412;28;45447;-70
2022/04/24 09:59:33;;;;;;;;;30.25;25.50;;;;;;;;5054175;28;45344;-72
2022/04/24 10:01:59;;;;;;;;;29.50;26.75;;;;;;;;5054361;28;45493;-71
2022/04/24 10:04:24;;;;;;;;;35.25;29.00;;;;;;;;5058589;28;45422;-72
2022/04/24 10:06:49;;;;;;;;;39.75;36.00;;;;;;;;5058318;28;45415;-73
2022/04/24 10:09:15;;;;;;;;;37.25;31.75;;;;;;;;5052899;28;46136;-72
2022/04/24 10:11:40;;;;;;;;;37.75;31.75;;;;;;;;5054639;28;45292;-72
2022/04/24 10:14:07;;;;;;;;;34.25;27.25;;;;;;;;5055001;28;45242;-71
2022/04/24 10:16:47;;;;;;;;;33.00;28.25;;;;;;;;5052419;28;45380;-70
2022/04/24 10:19:15;;;;;;;;;38.00;33.50;;;;;;;;5050980;28;45444;-70
2022/04/24 10:21:47;;;;;;;;;29.75;29.75;;;;;;;;5052151;28;45343;-70
2022/04/24 10:24:12;;;;;;;;;31.50;28.75;;;;;;;;5051727;28;45503;-71
2022/04/24 10:26:38;;;;;;;;;35.50;31.25;;;;;;;;5052557;28;45491;-74
2022/04/24 10:29:05;;;;;;;;;26.50;25.25;;;;;;;;5054808;28;45459;-73
2022/04/24 10:31:40;;;;;;;;;29.00;25.25;;;;;;;;5051500;28;45287;-73
2022/04/24 10:34:06;;;;;;;;;29.75;26.00;;;;;;;;5053087;28;45355;-73
2022/04/24 10:36:31;;;;;;;;;33.00;26.75;;;;;;;;5052466;28;45281;-72
2022/04/24 10:38:57;;;;;;;;;40.00;32.25;;;;;;;;5052913;28;45950;-71
2022/04/24 10:41:29;;;;;;;;;32.75;29.50;;;;;;;;5054331;28;45398;-72
2022/04/24 10:43:58;;;;;;;;;33.50;30.75;;;;;;;;5053580;28;45446;-72
2022/04/24 10:46:28;;;;;;;;;29.75;27.75;;;;;;;;5052499;28;45619;-72
2022/04/24 10:48:54;;;;;;;;;31.50;28.25;;;;;;;;5052234;28;45414;-72
2022/04/24 10:51:27;;;;;;;;;31.25;30.25;;;;;;;;5051921;28;45456;-72
2022/04/24 10:53:57;;;;;;;;;34.25;30.25;;;;;;;;5036595;28;45355;-71
2022/04/24 10:56:22;;;;;;;;;25.75;25.75;;;;;;;;5050686;28;45569;-72
2022/04/24 10:58:50;;;;;;;;;30.50;29.50;;;;;;;;5051919;28;45959;-69
2022/04/24 11:01:16;;;;;;;;;24.00;23.25;;;;;;;;5052121;28;45359;-72
2022/04/24 11:03:42;;;;;;;;;29.75;28.75;;;;;;;;5052182;28;45561;-71
2022/04/24 11:06:21;;;;;;;;;33.50;29.25;;;;;;;;5052234;28;45308;-71
2022/04/24 11:08:47;;;;;;;;;25.75;24.50;;;;;;;;5052136;28;46071;-71
2022/04/24 11:11:15;;;;;;;;;21.75;20.50;;;;;;;;5053784;28;45510;-71
2022/04/24 11:13:41;;;;;;;;;34.25;33.75;;;;;;;;5052007;28;45439;-71
2022/04/24 11:16:09;;;;;;;;;30.00;26.75;;;;;;;;5052302;28;45487;-70
2022/04/24 11:18:36;;;;;;;;;25.25;22.50;;;;;;;;5050394;28;45548;-70
2022/04/24 11:21:03;;;;;;;;;27.00;25.75;;;;;;;;5051343;28;45438;-70
2022/04/24 11:23:30;;;;;;;;;24.75;22.75;;;;;;;;5056818;28;45323;-71
2022/04/24 11:25:56;;;;;;;;;19.50;17.75;;;;;;;;5052588;28;45517;-71
2022/04/24 11:28:42;;;;;;;;;19.75;19.75;;;;;;;;5052752;28;46022;-71
2022/04/24 11:31:09;;;;;;;;;23.00;21.75;;;;;;;;5051275;28;45768;-71
2022/04/24 11:33:38;;;;;;;;;21.50;20.50;;;;;;;;5051248;28;45513;-70
2022/04/24 11:36:04;;;;;;;;;20.50;20.00;;;;;;;;5051954;28;45492;-71
2022/04/24 11:38:30;;;;;;;;;19.00;17.75;;;;;;;;5052559;28;47094;-71
2022/04/24 11:40:56;;;;;;;;;21.75;20.00;;;;;;;;5051459;28;45409;-70
2022/04/24 11:43:21;;;;;;;;;19.75;18.75;;;;;;;;5051674;28;45399;-70
2022/04/24 11:51:20;;;;;;;;;20.25;17.25;;;;;;;;5050896;28;45527;-70
2022/04/24 11:53:46;;;;;;;;;24.50;22.25;;;;;;;;5051741;28;45296;-70
2022/04/24 11:56:12;;;;;;;;;23.50;20.00;;;;;;;;5053504;28;45462;-70
2022/04/24 11:58:38;;;;;;;;;25.75;23.00;;;;;;;;5050754;28;46806;-70
2022/04/24 12:01:07;;;;;;;;;26.75;24.25;;;;;;;;5051089;28;46235;-70
2022/04/24 12:03:33;;;;;;;;;20.25;19.75;;;;;;;;5050281;28;45582;-71
2022/04/24 12:05:58;;;;;;;;;18.50;17.75;;;;;;;;5052558;28;45422;-71
2022/04/24 12:08:24;;;;;;;;;20.25;17.50;;;;;;;;5053069;28;45959;-71
2022/04/24 12:10:50;;;;;;;;;21.75;21.25;;;;;;;;5051747;28;45354;-71
2022/04/24 12:13:21;;;;;;;;;19.00;19.00;;;;;;;;5046222;28;45540;-70
2022/04/24 12:15:50;;;;;;;;;23.00;20.25;;;;;;;;5051383;28;45413;-71
2022/04/24 12:18:19;;;;;;;;;19.00;15.75;;;;;;;;5055196;28;46806;-72
2022/04/24 12:20:45;;;;;;;;;21.25;19.25;;;;;;;;5051767;28;45632;-71
2022/04/24 12:23:17;;;;;;;;;16.75;15.75;;;;;;;;5052544;28;45959;-70
2022/04/24 12:25:53;;;;;;;;;18.25;16.50;;;;;;;;5050835;28;45400;-70
2022/04/24 12:28:40;;;;;;;;;40.25;34.00;;;;;;;;5050629;28;45359;-70
2022/04/24 12:31:06;;;;;;;;;18.00;14.00;;;;;;;;5053619;28;45829;-69
2022/04/24 12:33:32;;;;;;;;;14.00;13.75;;;;;;;;5053910;28;45532;-71
2022/04/24 12:36:13;;;;;;;;;20.00;18.00;;;;;;;;5054608;28;45418;-71
2022/04/24 12:38:38;;;;;;;;;16.50;14.50;;;;;;;;5054546;28;45469;-71
2022/04/24 12:41:08;;;;;;;;;17.00;16.00;;;;;;;;5055629;28;45304;-70
2022/04/24 12:43:33;;;;;;;;;15.25;13.25;;;;;;;;5053752;28;45621;-69
2022/04/24 12:45:59;;;;;;;;;17.00;16.75;;;;;;;;5053737;28;45593;-71
2022/04/24 12:48:24;;;;;;;;;14.75;12.25;;;;;;;;5054511;28;46281;-72
2022/04/24 12:50:53;;;;;;;;;18.25;16.75;;;;;;;;5053935;28;45329;-72
2022/04/24 12:53:19;;;;;;;;;16.00;14.75;;;;;;;;5055361;28;45423;-72
2022/04/24 12:55:45;;;;;;;;;21.00;17.75;;;;;;;;5040636;28;45768;-72
2022/04/24 12:58:14;;;;;;;;;17.00;15.00;;;;;;;;5055050;28;45532;-73
2022/04/24 13:00:40;;;;;;;;;18.25;18.25;;;;;;;;5053586;28;45635;-72
2022/04/24 13:03:05;;;;;;;;;12.00;12.00;;;;;;;;5053644;28;45495;-72
2022/04/24 13:05:31;;;;;;;;;17.50;16.50;;;;;;;;5055677;28;45501;-72
2022/04/24 13:07:57;;;;;;;;;14.75;13.75;;;;;;;;5054466;28;46004;-71
2022/04/24 13:10:24;;;;;;;;;14.00;11.50;;;;;;;;5054041;28;45511;-73
2022/04/24 13:12:51;;;;;;;;;21.00;17.50;;;;;;;;5054136;28;45479;-73
2022/04/24 13:15:16;;;;;;;;;17.25;14.00;;;;;;;;5053295;28;45449;-74
2022/04/24 13:20:25;;;;;;;;;19.25;19.25;;;;;;;;5055830;28;45433;-73
2022/04/24 13:22:50;;;;;;;;;16.75;15.00;;;;;;;;5054438;28;45499;-72
2022/04/24 13:25:16;;;;;;;;;18.25;16.50;;;;;;;;5053647;28;45299;-73
2022/04/24 13:27:41;;;;;;;;;18.50;17.50;;;;;;;;5053523;28;45442;-73
2022/04/24 13:30:08;;;;;;;;;16.50;16.50;;;;;;;;5051725;28;45537;-73
2022/04/24 13:32:33;;;;;;;;;21.50;19.75;;;;;;;;5057409;27;45592;-82
2022/04/24 13:34:58;;;;;;;;;16.75;16.75;;;;;;;;5064231;28;45432;-81
2022/04/24 13:40:08;;;;;;;;;19.50;16.75;;;;;;;;5057088;27;45395;-78
2022/04/24 13:42:33;;;;;;;;;20.25;19.75;;;;;;;;5054946;28;47206;-81
2022/04/24 13:44:58;;;;;;;;;16.00;16.00;;;;;;;;5054297;28;45444;-85
2022/04/24 13:47:23;;;;;;;;;17.50;16.25;;;;;;;;5061357;28;46312;-84
2022/04/24 13:49:49;;;;;;;;;17.50;15.25;;;;;;;;5071337;27;45537;-88
2022/04/24 13:52:15;;;;;;;;;18.00;17.25;;;;;;;;5058197;28;45323;-81
2022/04/24 13:54:40;;;;;;;;;17.50;15.75;;;;;;;;5059216;28;45460;-79
2022/04/24 13:57:05;;;;;;;;;16.50;16.50;;;;;;;;5054004;28;45350;-77
2022/04/24 13:59:31;;;;;;;;;14.50;14.50;;;;;;;;5072018;28;45433;-81
2022/04/24 14:01:56;;;;;;;;;9.25;8.25;;;;;;;;5058629;28;45536;-77
2022/04/24 14:04:21;;;;;;;;;35.75;30.25;;;;;;;;5058994;27;45386;-83
2022/04/24 14:06:47;;;;;;;;;24.00;20.25;;;;;;;;5052927;28;47280;-85
2022/04/24 14:09:12;;;;;;;;;38.50;33.50;;;;;;;;5053807;28;45304;-83
2022/04/24 14:11:38;;;;;;;;;40.75;35.00;;;;;;;;5055519;28;45411;-77
2022/04/24 14:14:03;;;;;;;;;16.75;15.00;;;;;;;;5059509;28;45931;-84
2022/04/24 14:16:29;;;;;;;;;17.75;15.50;;;;;;;;5066132;28;50227;-84
2022/04/24 14:18:54;;;;;;;;;23.00;19.50;;;;;;;;5060219;28;45519;-85
2022/04/24 14:21:19;;;;;;;;;17.50;15.75;;;;;;;;5055946;28;45390;-78